Weather Station Data

Station Data Captured at Five Minute Intervals Since Midnight Local Time


Date Time Temp. RH % Dew Pt. Wind Speed Wind Dir. Peak Wind Wind Chill Pressure Precip. Solar W/m2 ET
3/22/19 4:15p 49.4 42 27.2 9.0 NW 15.0 45.2 30.043 0.00 181 0.000
3/22/19 4:10p 49.9 43 28.3 10.0 WNW 16.0 45.2 30.044 0.00 574 0.000
3/22/19 4:05p 49.7 45 29.2 11.0 WNW 23.0 44.4 30.042 0.00 748 0.000
3/22/19 4:00p 49.6 44 28.6 11.0 WNW 18.0 44.3 30.039 0.00 466 0.015
3/22/19 3:55p 49.9 45 29.4 9.0 WNW 16.0 45.8 30.034 0.00 811 0.000
3/22/19 3:50p 49.2 46 29.3 9.0 NW 17.0 44.9 30.032 0.00 289 0.000
3/22/19 3:45p 49.8 43 28.2 10.0 WNW 20.0 45.1 30.031 0.00 702 0.000
3/22/19 3:40p 50.0 43 28.4 9.0 WNW 18.0 45.9 30.031 0.00 668 0.000
3/22/19 3:35p 50.4 43 28.7 10.0 NW 20.0 45.8 30.032 0.00 861 0.000
3/22/19 3:30p 49.7 47 30.3 9.0 NW 17.0 45.5 30.027 0.00 875 0.000
3/22/19 3:25p 48.7 45 28.3 10.0 NW 20.0 43.8 30.026 0.00 174 0.000
3/22/19 3:20p 49.0 45 28.6 11.0 NW 19.0 43.6 30.027 0.00 850 0.000
3/22/19 3:15p 48.6 47 29.3 11.0 WNW 20.0 43.2 30.024 0.00 381 0.000
3/22/19 3:10p 48.8 48 30.0 12.0 WNW 25.0 43.0 30.022 0.00 834 0.000
3/22/19 3:05p 48.7 49 30.4 7.0 WNW 17.0 45.6 30.021 0.00 179 0.000
3/22/19 3:00p 48.3 49 30.0 11.0 W 26.0 42.8 30.021 0.00 644 0.012
3/22/19 2:55p 48.6 47 29.3 13.0 WNW 22.0 42.3 30.019 0.00 787 0.000
3/22/19 2:50p 48.5 48 29.7 13.0 WNW 24.0 42.2 30.019 0.00 783 0.000
3/22/19 2:45p 48.5 50 30.7 11.0 NW 21.0 43.1 30.021 0.00 773 0.000
3/22/19 2:40p 48.0 51 30.7 12.0 WNW 20.0 42.0 30.023 0.00 795 0.000
3/22/19 2:35p 47.8 54 31.9 9.0 NW 17.0 43.3 30.027 0.00 344 0.000
3/22/19 2:30p 47.2 56 32.3 10.0 NW 18.0 42.0 30.027 0.00 248 0.000
3/22/19 2:25p 47.2 55 31.8 11.0 WNW 21.0 41.5 30.026 0.00 292 0.000
3/22/19 2:20p 47.6 55 32.2 7.0 NW 12.0 44.3 30.026 0.00 285 0.000
3/22/19 2:15p 47.5 55 32.1 9.0 WNW 15.0 42.9 30.025 0.00 300 0.000
3/22/19 2:10p 47.1 56 32.2 9.0 NW 16.0 42.4 30.024 0.00 268 0.000
3/22/19 2:05p 47.0 56 32.1 10.0 WNW 18.0 41.8 30.025 0.00 294 0.000
3/22/19 2:00p 46.7 58 32.7 8.0 NW 17.0 42.6 30.022 0.00 264 0.008
3/22/19 1:55p 46.9 55 31.6 11.0 NW 18.0 41.2 30.021 0.00 256 0.000
3/22/19 1:50p 47.6 56 32.7 8.0 NNW 16.0 43.6 30.020 0.00 179 0.000
3/22/19 1:45p 47.9 56 32.9 8.0 NW 17.0 44.0 30.017 0.00 178 0.000
3/22/19 1:40p 48.2 58 34.1 7.0 NW 14.0 45.0 30.016 0.00 979 0.000
3/22/19 1:35p 47.7 58 33.6 8.0 NW 17.0 43.7 30.015 0.00 893 0.000
3/22/19 1:30p 46.7 61 34.0 6.0 WNW 12.0 43.7 30.014 0.00 830 0.000
3/22/19 1:25p 46.0 62 33.7 8.0 NW 15.0 41.8 30.014 0.00 348 0.000
3/22/19 1:20p 45.5 63 33.6 8.0 WNW 16.0 41.2 30.011 0.00 307 0.000
3/22/19 1:15p 45.2 65 34.1 7.0 NNW 20.0 41.4 30.013 0.00 180 0.000
3/22/19 1:10p 45.1 66 34.4 8.0 NW 13.0 40.7 30.010 0.00 125 0.000
3/22/19 1:05p 45.0 66 34.3 8.0 NW 14.0 40.6 30.006 0.00 97 0.000
3/22/19 1:00p 45.0 65 33.9 13.0 NW 20.0 38.2 30.005 0.00 71 0.005
3/22/19 12:55p 45.4 65 34.3 11.0 NW 18.0 39.5 30.003 0.00 86 0.000
3/22/19 12:50p 45.9 68 35.9 8.0 WNW 17.0 41.7 30.000 0.00 119 0.000
3/22/19 12:45p 46.1 68 36.1 11.0 NW 19.0 40.3 29.996 0.00 139 0.000
3/22/19 12:40p 46.1 68 36.1 12.0 NW 20.0 39.8 29.994 0.00 410 0.000
3/22/19 12:35p 45.7 70 36.5 8.0 NW 15.0 41.4 29.997 0.00 358 0.000
3/22/19 12:30p 45.3 72 36.8 10.0 WNW 17.0 39.8 29.992 0.00 184 0.000
3/22/19 12:25p 45.2 72 36.7 11.0 NW 20.0 39.2 29.993 0.00 148 0.000
3/22/19 12:20p 45.5 71 36.6 14.0 WNW 21.0 38.4 29.988 0.00 111 0.000
3/22/19 12:15p 46.0 70 36.8 10.0 W 19.0 40.6 29.986 0.00 218 0.000
3/22/19 12:10p 46.0 71 37.1 9.0 WNW 17.0 41.2 29.987 0.00 257 0.000
3/22/19 12:05p 45.8 71 36.9 13.0 WNW 21.0 39.1 29.986 0.00 211 0.000
3/22/19 12:00p 46.1 70 36.9 12.0 WNW 19.0 39.8 29.982 0.00 225 0.007
3/22/19 11:55a 46.5 71 37.6 8.0 WNW 12.0 42.3 29.977 0.00 226 0.000
3/22/19 11:50a 46.7 71 37.8 9.0 W 17.0 42.0 29.974 0.00 241 0.000
3/22/19 11:45a 46.8 72 38.2 10.0 W 18.0 41.6 29.973 0.00 623 0.000
3/22/19 11:40a 46.5 71 37.6 10.0 W 19.0 41.2 29.969 0.00 442 0.000
3/22/19 11:35a 46.1 71 37.2 10.0 W 20.0 40.7 29.964 0.00 415 0.000
3/22/19 11:30a 45.9 72 37.4 8.0 WNW 15.0 41.7 29.961 0.00 677 0.000
3/22/19 11:25a 45.5 74 37.7 6.0 W 14.0 42.3 29.959 0.00 478 0.000
3/22/19 11:20a 45.2 74 37.4 7.0 W 14.0 41.4 29.958 0.00 469 0.000
3/22/19 11:15a 45.1 75 37.6 6.0 W 13.0 41.8 29.956 0.00 346 0.000
3/22/19 11:10a 44.9 75 37.5 7.0 W 13.0 41.1 29.957 0.00 510 0.000
3/22/19 11:05a 44.7 76 37.6 5.0 W 12.0 42.0 29.955 0.00 469 0.000
3/22/19 11:00a 44.2 78 37.8 5.0 WSW 12.0 41.4 29.954 0.00 243 0.004
3/22/19 10:55a 43.7 77 37.0 6.0 W 13.0 40.1 29.951 0.00 228 0.000
3/22/19 10:50a 43.6 78 37.2 6.0 WSW 11.0 40.0 29.949 0.00 223 0.000
3/22/19 10:45a 43.3 79 37.2 4.0 W 10.0 41.1 29.947 0.00 248 0.000
3/22/19 10:40a 42.7 79 36.6 6.0 W 12.0 38.9 29.948 0.00 301 0.000
3/22/19 10:35a 42.4 79 36.3 6.0 W 12.0 38.6 29.946 0.00 285 0.000
3/22/19 10:30a 42.2 79 36.2 7.0 W 11.0 37.8 29.944 0.00 187 0.000
3/22/19 10:25a 42.1 79 36.1 5.0 W 8.0 38.9 29.946 0.00 103 0.000
3/22/19 10:20a 41.8 80 36.1 6.0 W 12.0 37.9 29.947 0.00 308 0.000
3/22/19 10:15a 41.4 80 35.7 6.0 W 14.0 37.4 29.949 0.00 209 0.000
3/22/19 10:10a 41.2 81 35.8 5.0 WSW 14.0 37.8 29.950 0.00 90 0.000
3/22/19 10:05a 41.0 81 35.6 7.0 W 14.0 36.3 29.948 0.00 108 0.000
3/22/19 10:00a 40.6 81 35.2 8.0 W 13.0 35.3 29.948 0.00 227 0.003
3/22/19 9:55a 40.4 81 35.0 6.0 W 11.0 36.2 29.949 0.00 234 0.000
3/22/19 9:50a 40.1 81 34.7 6.0 W 13.0 35.9 29.948 0.00 166 0.000
3/22/19 9:45a 39.9 82 34.9 7.0 W 13.0 35.0 29.946 0.00 188 0.000
3/22/19 9:40a 39.7 82 34.7 6.0 W 12.0 35.4 29.946 0.00 176 0.000
3/22/19 9:35a 39.4 82 34.4 6.0 WSW 10.0 35.0 29.947 0.00 214 0.000
3/22/19 9:30a 39.3 82 34.3 5.0 WSW 11.0 35.7 29.946 0.00 151 0.000
3/22/19 9:25a 39.0 83 34.3 6.0 W 11.0 34.6 29.948 0.00 216 0.000
3/22/19 9:20a 38.8 83 34.1 4.0 WSW 10.0 35.9 29.947 0.00 199 0.000
3/22/19 9:15a 38.6 83 33.9 5.0 W 10.0 34.8 29.945 0.00 163 0.000
3/22/19 9:10a 38.5 84 34.1 4.0 W 11.0 35.6 29.943 0.00 115 0.000
3/22/19 9:05a 38.3 84 33.9 4.0 W 11.0 35.4 29.941 0.00 45 0.000
3/22/19 9:00a 38.0 84 33.6 4.0 WSW 11.0 35.0 29.941 0.00 118 0.001
3/22/19 8:55a 37.8 84 33.4 3.0 WSW 8.0 35.9 29.941 0.00 135 0.000
3/22/19 8:50a 37.6 84 33.2 3.0 WSW 8.0 35.7 29.944 0.00 88 0.000
3/22/19 8:45a 37.4 84 33.0 4.0 WSW 10.0 34.3 29.946 0.00 38 0.000
3/22/19 8:40a 37.3 84 32.9 4.0 W 9.0 34.2 29.947 0.00 35 0.000
3/22/19 8:35a 37.1 84 32.7 5.0 W 12.0 33.1 29.948 0.00 56 0.000
3/22/19 8:30a 36.9 84 32.5 4.0 W 8.0 33.7 29.945 0.00 59 0.000
3/22/19 8:25a 36.8 85 32.7 3.0 W 7.0 34.7 29.944 0.00 44 0.000
3/22/19 8:20a 36.6 85 32.5 2.0 SW 7.0 36.0 29.944 0.00 34 0.000
3/22/19 8:15a 36.5 85 32.4 3.0 W 8.0 34.4 29.944 0.00 23 0.000
3/22/19 8:10a 36.5 85 32.4 3.0 W 7.0 34.4 29.944 0.00 19 0.000
3/22/19 8:05a 36.4 85 32.3 3.0 WSW 9.0 34.3 29.944 0.00 15 0.000
3/22/19 8:00a 36.4 85 32.3 3.0 WSW 7.0 34.3 29.943 0.00 13 0.000
3/22/19 7:55a 36.4 85 32.3 2.0 W 6.0 35.8 29.943 0.00 10 0.000
3/22/19 7:50a 36.5 85 32.4 3.0 WSW 6.0 34.4 29.943 0.00 8 0.000
3/22/19 7:45a 36.5 84 32.1 2.0 W 6.0 35.9 29.940 0.00 2 0.000
3/22/19 7:40a 36.6 84 32.2 3.0 SW 8.0 34.5 29.938 0.00 0 0.000
3/22/19 7:35a 36.6 84 32.2 3.0 SW 10.0 34.5 29.938 0.00 0 0.000
3/22/19 7:30a 36.6 85 32.5 3.0 SW 10.0 34.5 29.941 0.00 0 0.000
3/22/19 7:25a 36.6 85 32.5 3.0 WSW 9.0 34.5 29.940 0.00 0 0.000
3/22/19 7:20a 36.6 85 32.5 3.0 WSW 7.0 34.5 29.938 0.00 0 0.000
3/22/19 7:15a 36.7 85 32.6 2.0 WSW 7.0 36.1 29.939 0.00 0 0.000
3/22/19 7:10a 36.8 85 32.7 4.0 SSW 12.0 33.6 29.938 0.00 0 0.000
3/22/19 7:05a 36.7 85 32.6 3.0 SSW 8.0 34.6 29.939 0.00 0 0.000
3/22/19 7:00a 36.7 85 32.6 2.0 SSW 5.0 36.1 29.939 0.00 0 0.000
3/22/19 6:55a 36.8 84 32.4 1.0 SW 4.0 36.8 29.941 0.00 0 0.000
3/22/19 6:50a 36.8 85 32.7 2.0 SW 7.0 36.2 29.941 0.00 0 0.000
3/22/19 6:45a 36.9 84 32.5 2.0 S 8.0 36.4 29.942 0.00 0 0.000
3/22/19 6:40a 36.9 84 32.5 3.0 SW 8.0 34.9 29.941 0.00 0 0.000
3/22/19 6:35a 37.0 85 32.9 2.0 SSW 5.0 36.5 29.939 0.00 0 0.000
3/22/19 6:30a 37.1 84 32.7 3.0 S 7.0 35.1 29.941 0.00 0 0.000
3/22/19 6:25a 37.1 85 33.0 3.0 SSW 10.0 35.1 29.942 0.00 0 0.000
3/22/19 6:20a 37.1 85 33.0 3.0 SSW 8.0 35.1 29.941 0.00 0 0.000
3/22/19 6:15a 37.2 85 33.1 3.0 SSW 7.0 35.2 29.940 0.00 0 0.000
3/22/19 6:10a 37.2 85 33.1 3.0 SSW 5.0 35.2 29.939 0.00 0 0.000
3/22/19 6:05a 37.3 84 32.9 3.0 SSW 8.0 35.3 29.939 0.00 0 0.000
3/22/19 6:00a 37.4 84 33.0 4.0 SSW 7.0 34.3 29.940 0.00 0 0.001
3/22/19 5:55a 37.5 85 33.4 4.0 SSW 8.0 34.4 29.941 0.00 0 0.000
3/22/19 5:50a 37.5 85 33.4 3.0 SSW 6.0 35.5 29.942 0.00 0 0.000
3/22/19 5:45a 37.5 84 33.1 3.0 SSW 6.0 35.5 29.946 0.00 0 0.000
3/22/19 5:40a 37.7 84 33.3 3.0 SSW 8.0 35.8 29.947 0.00 0 0.000
3/22/19 5:35a 37.9 84 33.5 3.0 SSW 7.0 36.0 29.946 0.00 0 0.000
3/22/19 5:30a 38.0 84 33.6 4.0 SSW 8.0 35.0 29.945 0.00 0 0.000
3/22/19 5:25a 38.0 84 33.6 3.0 SSW 7.0 36.1 29.948 0.00 0 0.000
3/22/19 5:20a 38.2 84 33.8 4.0 SSW 8.0 35.2 29.948 0.00 0 0.000
3/22/19 5:15a 38.3 84 33.9 3.0 SSW 7.0 36.4 29.949 0.00 0 0.000
3/22/19 5:10a 38.4 84 34.0 3.0 SSW 8.0 36.6 29.950 0.00 0 0.000
3/22/19 5:05a 38.6 84 34.2 3.0 SSW 6.0 36.8 29.955 0.00 0 0.000
3/22/19 5:00a 38.7 84 34.3 3.0 SSW 9.0 36.9 29.954 0.00 0 0.001
3/22/19 4:55a 38.9 84 34.5 4.0 SSW 7.0 36.0 29.956 0.00 0 0.000
3/22/19 4:50a 39.0 84 34.6 3.0 SW 6.0 37.2 29.959 0.00 0 0.000
3/22/19 4:45a 39.1 84 34.7 3.0 SSW 7.0 37.3 29.958 0.00 0 0.000
3/22/19 4:40a 39.2 83 34.5 3.0 SSW 7.0 37.5 29.960 0.00 0 0.000
3/22/19 4:35a 39.3 83 34.6 2.0 SSW 8.0 39.0 29.963 0.00 0 0.000
3/22/19 4:30a 39.3 83 34.6 3.0 SSW 6.0 37.6 29.963 0.00 0 0.000
3/22/19 4:25a 39.4 83 34.7 3.0 SSW 5.0 37.7 29.965 0.00 0 0.000
3/22/19 4:20a 39.3 83 34.6 2.0 SSW 5.0 39.0 29.968 0.00 0 0.000
3/22/19 4:15a 39.2 82 34.2 2.0 SSW 7.0 38.9 29.974 0.00 0 0.000
3/22/19 4:10a 39.2 82 34.2 2.0 WSW 5.0 38.9 29.976 0.00 0 0.000
3/22/19 4:05a 39.4 82 34.4 2.0 WSW 6.0 39.1 29.979 0.00 0 0.000
3/22/19 4:00a 39.6 82 34.6 2.0 W 6.0 39.3 29.981 0.00 0 0.001
3/22/19 3:55a 39.8 82 34.8 2.0 W 4.0 39.5 29.981 0.00 0 0.000
3/22/19 3:50a 39.9 82 34.9 2.0 WSW 5.0 39.7 29.984 0.00 0 0.000
3/22/19 3:45a 39.9 83 35.2 2.0 SW 7.0 39.7 29.986 0.00 0 0.000
3/22/19 3:40a 39.9 83 35.2 2.0 WSW 6.0 39.7 29.988 0.00 0 0.000
3/22/19 3:35a 39.9 83 35.2 2.0 SW 6.0 39.7 29.989 0.00 0 0.000
3/22/19 3:30a 39.9 83 35.2 2.0 SW 4.0 39.7 29.991 0.00 0 0.000
3/22/19 3:25a 40.0 83 35.3 2.0 WSW 4.0 39.8 29.992 0.00 0 0.000
3/22/19 3:20a 40.0 82 34.9 2.0 WSW 5.0 39.8 29.993 0.00 0 0.000
3/22/19 3:15a 40.0 83 35.3 2.0 WSW 4.0 39.8 29.995 0.00 0 0.000
3/22/19 3:10a 40.1 82 35.0 2.0 W 4.0 39.9 29.997 0.00 0 0.000
3/22/19 3:05a 40.1 82 35.0 2.0 W 4.0 39.9 29.998 0.00 0 0.000
3/22/19 3:00a 40.1 82 35.0 2.0 W 6.0 39.9 30.000 0.00 0 0.001
3/22/19 2:55a 40.2 82 35.1 2.0 W 7.0 40.0 30.000 0.00 0 0.000
3/22/19 2:50a 40.2 82 35.1 1.0 WSW 3.0 40.2 30.002 0.00 0 0.000
3/22/19 2:45a 40.3 82 35.2 1.0 WSW 5.0 40.3 30.003 0.00 0 0.000
3/22/19 2:40a 40.3 81 34.9 2.0 W 6.0 40.1 30.003 0.00 0 0.000
3/22/19 2:35a 40.3 81 34.9 2.0 WSW 7.0 40.1 30.004 0.00 0 0.000
3/22/19 2:30a 40.4 81 35.0 3.0 W 9.0 38.8 30.005 0.00 0 0.000
3/22/19 2:25a 40.4 81 35.0 3.0 W 9.0 38.8 30.005 0.00 0 0.000
3/22/19 2:20a 40.4 81 35.0 4.0 W 8.0 37.8 30.004 0.00 0 0.000
3/22/19 2:15a 40.4 81 35.0 4.0 W 10.0 37.8 30.004 0.00 0 0.000
3/22/19 2:10a 40.4 80 34.7 3.0 W 8.0 38.8 30.005 0.00 0 0.000
3/22/19 2:05a 40.5 81 35.1 3.0 W 9.0 39.0 30.006 0.00 0 0.000
3/22/19 2:00a 40.5 81 35.1 4.0 W 8.0 37.9 30.008 0.00 0 0.001
3/22/19 1:55a 40.6 81 35.2 3.0 W 10.0 39.1 30.010 0.00 0 0.000
3/22/19 1:50a 40.6 81 35.2 4.0 W 8.0 38.0 30.011 0.00 0 0.000
3/22/19 1:45a 40.6 81 35.2 3.0 W 7.0 39.1 30.010 0.00 0 0.000
3/22/19 1:40a 40.6 81 35.2 2.0 W 7.0 40.5 30.010 0.00 0 0.000
3/22/19 1:35a 40.6 81 35.2 2.0 W 4.0 40.5 30.010 0.00 0 0.000
3/22/19 1:30a 40.6 81 35.2 3.0 W 7.0 39.1 30.011 0.00 0 0.000
3/22/19 1:25a 40.7 81 35.3 4.0 W 8.0 38.1 30.012 0.00 0 0.000
3/22/19 1:20a 40.7 81 35.3 3.0 W 6.0 39.2 30.012 0.00 0 0.000
3/22/19 1:15a 40.7 81 35.3 3.0 W 9.0 39.2 30.015 0.00 0 0.000
3/22/19 1:10a 40.7 81 35.3 3.0 W 7.0 39.2 30.014 0.00 0 0.000
3/22/19 1:05a 40.7 81 35.3 2.0 W 7.0 40.6 30.016 0.00 0 0.000
3/22/19 1:00a 40.7 81 35.3 3.0 W 8.0 39.2 30.016 0.00 0 0.001
3/22/19 12:55a 40.7 82 35.6 3.0 W 6.0 39.2 30.019 0.00 0 0.000
3/22/19 12:50a 40.7 82 35.6 2.0 W 6.0 40.6 30.015 0.00 0 0.000
3/22/19 12:45a 40.7 82 35.6 3.0 W 8.0 39.2 30.017 0.00 0 0.000
3/22/19 12:40a 40.7 82 35.6 3.0 W 9.0 39.2 30.020 0.00 0 0.000
3/22/19 12:35a 40.7 83 35.9 4.0 W 9.0 38.1 30.018 0.00 0 0.000
3/22/19 12:30a 40.7 83 35.9 4.0 W 9.0 38.1 30.020 0.00 0 0.000
3/22/19 12:25a 40.7 83 35.9 4.0 W 8.0 38.1 30.019 0.00 0 0.000
3/22/19 12:20a 40.6 83 35.8 4.0 W 10.0 38.0 30.018 0.00 0 0.000
3/22/19 12:15a 40.6 83 35.8 6.0 W 13.0 36.5 30.015 0.00 0 0.000
3/22/19 12:10a 40.6 84 36.1 5.0 W 10.0 37.2 30.021 0.00 0 0.000
3/22/19 12:05a 40.7 84 36.2 6.0 W 10.0 36.6 30.019 0.00 0 0.000
3/22/19 12:00a 40.8 83 36.0 5.0 W 13.0 37.4 30.018 0.00 0 0.001

12,679 Page Views